createdAt,value
2019-01-09T00:01:30.971Z,2.10
2019-01-09T00:04:02.598Z,2.53
2019-01-09T00:06:34.054Z,2.97
2019-01-09T00:09:08.298Z,2.27
2019-01-09T00:11:39.598Z,3.57
2019-01-09T00:14:10.897Z,2.03
2019-01-09T00:16:42.222Z,3.77
2019-01-09T00:19:13.957Z,2.93
2019-01-09T00:21:45.378Z,2.40
2019-01-09T00:24:16.706Z,2.47
2019-01-09T00:26:48.736Z,2.10
2019-01-09T00:29:20.093Z,2.23
2019-01-09T00:31:51.609Z,2.50
2019-01-09T00:34:22.996Z,2.80
2019-01-09T00:36:54.362Z,2.70
2019-01-09T00:39:25.634Z,2.23
2019-01-09T00:41:57.928Z,2.17
2019-01-09T00:44:29.198Z,2.30
2019-01-09T00:47:00.497Z,2.27
2019-01-09T00:49:32.210Z,3.13
2019-01-09T00:52:03.906Z,2.73
2019-01-09T00:54:35.218Z,2.40
2019-01-09T00:57:08.670Z,1.70
2019-01-09T00:59:41.228Z,2.10
2019-01-09T01:02:40.929Z,2.17
2019-01-09T01:05:46.720Z,1.73
2019-01-09T01:09:02.870Z,1.80
2019-01-09T01:12:13.563Z,1.80
2019-01-09T01:15:34.326Z,1.60
2019-01-09T01:18:46.576Z,1.53
2019-01-09T01:21:24.833Z,2.00
2019-01-09T01:24:41.466Z,1.20
2019-01-09T01:27:24.353Z,1.30
2019-01-09T01:30:48.422Z,1.23
2019-01-09T01:34:01.393Z,1.20
2019-01-09T01:37:16.081Z,1.33
2019-01-09T01:40:21.105Z,1.47
2019-01-09T01:43:45.318Z,1.07
2019-01-09T01:47:03.659Z,1.47
2019-01-09T01:50:17.008Z,0.80
2019-01-09T01:53:23.225Z,1.33
2019-01-09T01:56:30.394Z,0.67
2019-01-09T01:59:16.349Z,0.80
2019-01-09T02:02:24.569Z,0.87
2019-01-09T02:05:18.614Z,0.90
2019-01-09T02:08:36.422Z,0.90
2019-01-09T02:12:00.699Z,0.90
2019-01-09T02:15:26.800Z,1.00
2019-01-09T02:18:23.322Z,0.90
2019-01-09T02:21:38.381Z,0.73
2019-01-09T02:24:44.785Z,0.87
2019-01-09T02:28:03.530Z,0.90
2019-01-09T02:31:17.996Z,1.10
2019-01-09T02:33:49.298Z,1.17
2019-01-09T02:36:20.553Z,0.40
2019-01-09T02:38:51.835Z,0.77
2019-01-09T02:41:23.505Z,0.43
2019-01-09T02:43:55.229Z,0.60
2019-01-09T02:46:26.501Z,0.53
2019-01-09T02:48:57.790Z,0.80
2019-01-09T02:51:29.078Z,1.20
2019-01-09T02:54:00.355Z,0.30
2019-01-09T02:56:31.763Z,0.30
2019-01-09T02:59:03.056Z,0.10
2019-01-09T03:01:34.355Z,0.30
2019-01-09T03:04:05.599Z,0.30
2019-01-09T03:06:37.315Z,0.37
2019-01-09T03:09:08.552Z,0.43
2019-01-09T03:11:39.884Z,0.53
2019-01-09T03:14:11.156Z,0.90
2019-01-09T03:16:42.421Z,0.53
2019-01-09T03:19:13.718Z,0.60
2019-01-09T03:21:45.022Z,0.50
2019-01-09T03:24:17.299Z,0.60
2019-01-09T03:26:49.281Z,0.30
2019-01-09T03:29:20.549Z,0.40
2019-01-09T03:31:51.858Z,0.40
2019-01-09T03:34:23.179Z,0.60
2019-01-09T03:36:54.649Z,0.40
2019-01-09T03:39:25.927Z,0.30
2019-01-09T03:41:57.211Z,0.27
2019-01-09T03:44:28.481Z,0.50
2019-01-09T03:46:59.917Z,0.40
2019-01-09T03:49:31.478Z,0.27
2019-01-09T03:52:02.774Z,0.30
2019-01-09T03:54:34.043Z,0.60
2019-01-09T03:57:08.225Z,0.30
2019-01-09T03:59:39.513Z,0.30
2019-01-09T04:02:10.866Z,0.70
2019-01-09T04:04:44.670Z,0.40
2019-01-09T04:07:16.008Z,0.60
2019-01-09T04:09:47.317Z,0.60
2019-01-09T04:12:18.654Z,0.47
2019-01-09T04:14:50.063Z,0.72
2019-01-09T04:17:21.451Z,0.80
2019-01-09T04:19:52.857Z,0.97
2019-01-09T04:22:26.155Z,0.90
2019-01-09T04:24:57.665Z,1.23
2019-01-09T04:27:29.151Z,1.20
2019-01-09T04:30:00.533Z,1.00
2019-01-09T04:32:31.954Z,1.07
2019-01-09T04:35:03.246Z,1.00
2019-01-09T04:37:34.535Z,0.93
2019-01-09T04:40:06.152Z,0.80
2019-01-09T04:42:38.610Z,0.80
2019-01-09T04:45:10.063Z,0.93
2019-01-09T04:47:41.438Z,1.23
2019-01-09T04:50:12.800Z,1.20
2019-01-09T04:52:44.134Z,1.30
2019-01-09T04:55:15.507Z,1.03
2019-01-09T04:57:48.115Z,0.90
2019-01-09T05:00:19.478Z,1.00
2019-01-09T05:02:50.820Z,1.53
2019-01-09T05:05:22.135Z,1.33
2019-01-09T05:07:54.364Z,1.60
2019-01-09T05:10:25.697Z,0.80
2019-01-09T05:12:57.109Z,1.37
2019-01-09T05:15:28.638Z,1.00
2019-01-09T05:17:59.915Z,1.10
2019-01-09T05:20:32.233Z,1.13
2019-01-09T05:23:03.482Z,1.20
2019-01-09T05:25:35.755Z,1.00
2019-01-09T05:28:07.018Z,1.37
2019-01-09T05:30:38.297Z,1.70
2019-01-09T05:33:13.761Z,1.00
2019-01-09T05:35:45.059Z,1.70
2019-01-09T05:38:16.354Z,0.80
2019-01-09T05:40:47.597Z,1.10
2019-01-09T05:43:18.851Z,1.20
2019-01-09T05:45:50.113Z,1.43
2019-01-09T05:48:21.406Z,2.33
2019-01-09T05:50:52.695Z,1.03
2019-01-09T05:53:24.018Z,2.90
2019-01-09T05:55:56.463Z,4.27
2019-01-09T05:58:27.756Z,3.37
2019-01-09T06:00:59.190Z,4.00
2019-01-09T06:03:30.513Z,4.60
2019-01-09T06:06:01.804Z,4.27
2019-01-09T06:08:33.150Z,2.57
2019-01-09T06:11:04.545Z,2.43
2019-01-09T06:13:35.898Z,2.17
2019-01-09T06:16:07.227Z,2.10
2019-01-09T06:18:38.545Z,1.40
2019-01-09T06:21:09.875Z,1.60
2019-01-09T06:23:41.751Z,2.33
2019-01-09T06:26:14.162Z,2.67
2019-01-09T06:28:45.475Z,1.30
2019-01-09T06:31:16.778Z,1.83
2019-01-09T06:33:48.106Z,1.97
2019-01-09T06:36:19.466Z,1.50
2019-01-09T06:38:53.479Z,1.40
2019-01-09T06:41:24.798Z,2.20
2019-01-09T06:43:57.190Z,1.30
2019-01-09T06:46:28.513Z,1.60
2019-01-09T06:48:59.886Z,1.80
2019-01-09T06:51:31.218Z,2.20
2019-01-09T06:54:02.642Z,2.17
2019-01-09T06:56:36.116Z,3.50
2019-01-09T06:59:07.461Z,1.80
2019-01-09T07:01:38.753Z,1.63
2019-01-09T07:04:11.215Z,2.52
2019-01-09T07:06:42.537Z,2.40
2019-01-09T07:09:13.889Z,2.30
2019-01-09T07:11:45.424Z,1.77
2019-01-09T07:14:16.846Z,1.60
2019-01-09T07:16:48.244Z,0.90
2019-01-09T07:19:19.579Z,2.13
2019-01-09T07:21:50.899Z,3.10
2019-01-09T07:24:22.235Z,3.87
2019-01-09T07:26:53.598Z,3.90
2019-01-09T07:29:24.946Z,3.03
2019-01-09T07:31:56.304Z,1.63
2019-01-09T07:34:27.743Z,2.93
2019-01-09T07:36:59.075Z,1.30
2019-01-09T07:39:30.671Z,1.50
2019-01-09T07:42:01.985Z,2.30
2019-01-09T07:44:33.325Z,2.20
2019-01-09T07:47:04.674Z,3.20
2019-01-09T07:49:36.019Z,3.20
2019-01-09T07:52:07.388Z,4.23
2019-01-09T07:54:38.743Z,1.07
2019-01-09T07:57:10.140Z,1.70
2019-01-09T07:59:41.450Z,1.47
2019-01-09T08:02:12.815Z,1.43
2019-01-09T08:04:44.139Z,1.60
2019-01-09T08:07:15.518Z,2.07
2019-01-09T08:09:47.329Z,2.23
2019-01-09T08:12:18.646Z,2.23
2019-01-09T08:14:49.961Z,2.53
2019-01-09T08:17:21.292Z,3.77
2019-01-09T08:19:52.622Z,3.37
2019-01-09T08:22:23.946Z,2.07
2019-01-09T08:24:55.253Z,2.90
2019-01-09T08:27:27.503Z,2.50
2019-01-09T08:29:58.865Z,1.40
2019-01-09T08:32:30.203Z,2.03
2019-01-09T08:35:01.552Z,1.63
2019-01-09T08:37:32.842Z,1.97
2019-01-09T08:40:04.813Z,2.00
2019-01-09T08:42:36.157Z,3.77
2019-01-09T08:45:08.839Z,3.90
2019-01-09T08:47:40.569Z,3.07
2019-01-09T08:50:11.898Z,5.00
2019-01-09T08:52:43.220Z,3.30
2019-01-09T08:55:14.638Z,2.90
2019-01-09T08:57:46.402Z,2.90
2019-01-09T09:00:18.846Z,3.97
2019-01-09T09:02:50.232Z,3.57
2019-01-09T09:05:21.557Z,3.40
2019-01-09T09:08:11.570Z,3.33
2019-01-09T09:10:35.646Z,3.67
2019-01-09T09:13:07.915Z,3.03
2019-01-09T09:15:39.230Z,2.13
2019-01-09T09:18:10.564Z,4.67
2019-01-09T09:20:41.882Z,3.97
2019-01-09T09:23:13.175Z,3.97
2019-01-09T09:25:45.427Z,3.77
2019-01-09T09:28:17.133Z,2.57
2019-01-09T09:30:48.493Z,3.07
2019-01-09T09:33:19.819Z,4.10
2019-01-09T09:35:51.157Z,3.40
2019-01-09T09:38:22.598Z,3.10
2019-01-09T09:40:53.913Z,4.40
2019-01-09T09:43:25.817Z,5.77
2019-01-09T09:45:57.147Z,5.27
2019-01-09T09:48:28.442Z,3.90
2019-01-09T09:50:59.814Z,4.67
2019-01-09T09:53:31.110Z,2.37
2019-01-09T09:56:03.366Z,3.47
2019-01-09T09:58:34.633Z,1.83
2019-01-09T10:01:06.185Z,3.20
2019-01-09T10:03:37.772Z,2.13
2019-01-09T10:06:09.162Z,1.70
2019-01-09T10:08:40.510Z,1.93
2019-01-09T10:11:11.884Z,1.93
2019-01-09T10:13:43.330Z,2.63
2019-01-09T10:16:15.674Z,1.80
2019-01-09T10:18:47.494Z,1.60
2019-01-09T10:21:19.152Z,1.80
2019-01-09T10:23:50.491Z,2.13
2019-01-09T10:26:21.849Z,1.80
2019-01-09T10:28:54.600Z,1.80
2019-01-09T10:31:25.945Z,3.13
2019-01-09T10:33:57.837Z,1.87
2019-01-09T10:36:29.206Z,1.67
2019-01-09T10:39:00.606Z,2.37
2019-01-09T10:41:31.940Z,3.90
2019-01-09T10:44:03.719Z,4.33
2019-01-09T10:46:35.045Z,6.83
2019-01-09T10:49:06.377Z,3.87
2019-01-09T10:51:38.784Z,2.83
2019-01-09T10:54:11.126Z,1.50
2019-01-09T10:56:42.547Z,1.80
2019-01-09T10:59:13.879Z,1.60
2019-01-09T11:01:45.226Z,3.03
2019-01-09T11:04:16.537Z,8.17
2019-01-09T11:06:48.015Z,5.17
2019-01-09T11:09:19.393Z,4.43
2019-01-09T11:11:50.703Z,6.37
2019-01-09T11:14:22.061Z,1.80
2019-01-09T11:16:53.357Z,4.57
2019-01-09T11:19:24.698Z,4.53
2019-01-09T11:21:56.030Z,2.20
2019-01-09T11:24:28.451Z,2.50
2019-01-09T11:27:00.872Z,2.30
2019-01-09T11:29:32.654Z,3.17
2019-01-09T11:32:04.101Z,4.80
2019-01-09T11:34:35.457Z,2.63
2019-01-09T11:37:06.879Z,7.83
2019-01-09T11:39:38.218Z,5.03
2019-01-09T11:42:09.648Z,2.00
2019-01-09T11:44:41.028Z,2.37
2019-01-09T11:47:12.456Z,2.50
2019-01-09T11:49:43.765Z,2.40
2019-01-09T11:52:15.090Z,1.73
2019-01-09T11:54:46.397Z,1.83
2019-01-09T11:57:20.545Z,2.60
2019-01-09T11:59:51.904Z,1.20
2019-01-09T12:02:23.335Z,2.80
2019-01-09T12:04:54.899Z,1.93
2019-01-09T12:07:26.262Z,1.90
2019-01-09T12:09:57.591Z,3.07
2019-01-09T12:12:28.893Z,1.80
2019-01-09T12:15:00.449Z,2.17
2019-01-09T12:17:31.790Z,1.80
2019-01-09T12:20:03.087Z,2.17
2019-01-09T12:22:34.506Z,1.90
2019-01-09T12:25:06.752Z,3.23
2019-01-09T12:27:38.070Z,2.27
2019-01-09T12:30:16.118Z,2.40
2019-01-09T12:32:47.433Z,2.50
2019-01-09T12:35:18.891Z,4.03
2019-01-09T12:37:50.230Z,2.20
2019-01-09T12:40:21.762Z,4.07
2019-01-09T12:42:53.527Z,2.30
2019-01-09T12:45:24.840Z,1.60
2019-01-09T12:47:56.674Z,3.17
2019-01-09T12:50:28.190Z,2.27
2019-01-09T12:52:59.517Z,1.30
2019-01-09T12:55:30.850Z,1.20
2019-01-09T12:58:02.265Z,1.97
2019-01-09T13:00:33.702Z,2.47
2019-01-09T13:03:04.971Z,1.47
2019-01-09T13:05:36.457Z,4.63
2019-01-09T13:08:07.785Z,1.73
2019-01-09T13:10:39.158Z,1.90
2019-01-09T13:13:10.481Z,1.20
2019-01-09T13:15:41.936Z,2.67
2019-01-09T13:18:13.297Z,2.13
2019-01-09T13:20:44.586Z,1.90
2019-01-09T13:23:15.905Z,0.87
2019-01-09T13:25:48.926Z,1.27
2019-01-09T13:28:20.267Z,1.10
2019-01-09T13:30:51.724Z,1.17
2019-01-09T13:33:23.354Z,1.73
2019-01-09T13:35:55.683Z,0.93
2019-01-09T13:38:26.975Z,1.90
2019-01-09T13:40:58.292Z,1.53
2019-01-09T13:43:29.679Z,1.70
2019-01-09T13:46:01.017Z,1.50
2019-01-09T13:48:32.330Z,1.20
2019-01-09T13:51:03.690Z,0.87
2019-01-09T13:53:35.122Z,1.10
2019-01-09T13:56:06.647Z,1.33
2019-01-09T13:58:38.015Z,1.20
2019-01-09T14:01:09.342Z,1.00
2019-01-09T14:03:40.669Z,1.40
2019-01-09T14:06:11.977Z,3.37
2019-01-09T14:08:43.383Z,2.70
2019-01-09T14:11:16.231Z,1.67
2019-01-09T14:13:47.534Z,0.90
2019-01-09T14:16:18.842Z,1.90
2019-01-09T14:18:55.187Z,1.23
2019-01-09T14:21:23.117Z,2.03
2019-01-09T14:23:54.453Z,3.13
2019-01-09T14:26:26.431Z,3.17
2019-01-09T14:28:57.770Z,2.63
2019-01-09T14:31:29.322Z,1.53
2019-01-09T14:34:00.650Z,1.30
2019-01-09T14:36:31.985Z,2.00
2019-01-09T14:39:04.948Z,1.20
2019-01-09T14:41:36.291Z,1.83
2019-01-09T14:44:08.077Z,1.53
2019-01-09T14:46:39.459Z,1.97
2019-01-09T14:49:11.834Z,1.73
2019-01-09T14:51:43.556Z,2.03
2019-01-09T14:54:14.944Z,1.77
2019-01-09T14:56:47.726Z,1.20
2019-01-09T14:59:20.708Z,1.10
2019-01-09T15:01:55.059Z,2.03
2019-01-09T15:04:26.389Z,0.90
2019-01-09T15:06:57.874Z,1.33
2019-01-09T15:09:29.663Z,1.30
2019-01-09T15:12:02.084Z,1.60
2019-01-09T15:14:33.398Z,1.27
2019-01-09T15:17:04.910Z,1.87
2019-01-09T15:19:36.262Z,10.13
2019-01-09T15:22:07.739Z,1.90
2019-01-09T15:24:39.023Z,2.30
2019-01-09T15:27:10.498Z,2.37
2019-01-09T15:29:42.030Z,9.87
2019-01-09T15:32:13.328Z,5.00
2019-01-09T15:34:44.613Z,1.57
2019-01-09T15:37:15.957Z,8.53
2019-01-09T15:39:47.278Z,5.50
2019-01-09T15:42:19.762Z,15.77
2019-01-09T15:44:51.071Z,6.60
2019-01-09T15:47:22.406Z,5.00
2019-01-09T15:49:53.778Z,2.60
2019-01-09T15:52:25.565Z,1.27
2019-01-09T15:54:56.933Z,3.47
2019-01-09T15:57:28.318Z,2.53
2019-01-09T16:00:00.654Z,2.53
2019-01-09T16:02:31.999Z,2.07
2019-01-09T16:05:03.654Z,1.60
2019-01-09T16:07:35.055Z,2.10
2019-01-09T16:10:14.456Z,2.17
2019-01-09T16:12:41.371Z,1.80
2019-01-09T16:15:14.426Z,1.60
2019-01-09T16:17:46.234Z,2.17
2019-01-09T16:20:18.647Z,1.77
2019-01-09T16:22:50.295Z,2.17
2019-01-09T16:25:21.691Z,1.67
2019-01-09T16:27:53.034Z,1.60
2019-01-09T16:31:00.400Z,1.03
2019-01-09T16:33:31.728Z,1.37
2019-01-09T16:36:03.024Z,1.63
2019-01-09T16:38:34.326Z,2.60
2019-01-09T16:41:05.798Z,1.17
2019-01-09T16:43:37.063Z,1.00
2019-01-09T16:46:09.115Z,2.40
2019-01-09T16:48:47.015Z,1.50
2019-01-09T16:51:18.005Z,1.53
2019-01-09T16:53:49.393Z,2.50
2019-01-09T16:56:20.792Z,3.00
2019-01-09T16:58:52.348Z,3.10
2019-01-09T17:01:23.862Z,2.00
2019-01-09T17:03:55.224Z,1.50
2019-01-09T17:06:26.734Z,2.23
2019-01-09T17:08:58.029Z,2.60
2019-01-09T17:11:29.581Z,4.00
2019-01-09T17:14:00.920Z,3.40
2019-01-09T17:16:32.934Z,2.53
2019-01-09T17:19:04.256Z,1.73
2019-01-09T17:21:35.702Z,2.90
2019-01-09T17:24:07.063Z,3.63
2019-01-09T17:26:38.415Z,3.03
2019-01-09T17:29:09.738Z,2.47
2019-01-09T17:31:41.069Z,2.20
2019-01-09T17:34:12.566Z,1.90
2019-01-09T17:36:43.890Z,1.60
2019-01-09T17:39:15.267Z,2.90
2019-01-09T17:41:46.835Z,2.33
2019-01-09T17:44:18.238Z,2.10
2019-01-09T17:46:49.594Z,2.50
2019-01-09T17:49:20.951Z,1.70
2019-01-09T17:51:53.617Z,3.43
2019-01-09T17:54:24.959Z,4.57
2019-01-09T17:56:57.555Z,3.10
2019-01-09T17:59:28.949Z,2.97
2019-01-09T18:02:00.977Z,1.60
2019-01-09T18:04:32.350Z,2.20
2019-01-09T18:07:03.785Z,2.70
2019-01-09T18:09:35.105Z,2.53
2019-01-09T18:12:07.139Z,3.00
2019-01-09T18:14:38.637Z,1.90
2019-01-09T18:17:10.017Z,2.80
2019-01-09T18:19:41.954Z,4.60
2019-01-09T18:22:13.425Z,2.67
2019-01-09T18:24:44.759Z,3.40
2019-01-09T18:27:16.563Z,3.93
2019-01-09T18:29:47.897Z,4.87
2019-01-09T18:32:35.000Z,2.87
2019-01-09T18:35:23.936Z,3.27
2019-01-09T18:38:35.107Z,3.50
2019-01-09T18:41:41.236Z,2.50
2019-01-09T18:44:22.745Z,2.57
2019-01-09T18:47:25.379Z,2.50
2019-01-09T18:50:26.971Z,3.10
2019-01-09T18:53:33.362Z,2.20
2019-01-09T18:56:05.090Z,2.53
2019-01-09T18:58:36.639Z,2.90
2019-01-09T19:01:08.378Z,2.40
2019-01-09T19:03:39.845Z,2.33
2019-01-09T19:06:12.716Z,2.43
2019-01-09T19:08:44.123Z,2.87
2019-01-09T19:11:16.493Z,2.47
2019-01-09T19:13:47.854Z,3.37
2019-01-09T19:16:19.166Z,4.53
2019-01-09T19:18:51.633Z,3.67
2019-01-09T19:21:24.115Z,3.10
2019-01-09T19:23:57.446Z,3.30
2019-01-09T19:26:28.501Z,3.50
2019-01-09T19:29:00.403Z,2.70
2019-01-09T19:31:31.815Z,7.73
2019-01-09T19:34:03.249Z,6.53
2019-01-09T19:36:34.703Z,6.33
2019-01-09T19:39:09.707Z,3.73
2019-01-09T19:41:41.407Z,3.17
2019-01-09T19:44:12.769Z,4.47
2019-01-09T19:46:46.276Z,4.30
2019-01-09T19:49:17.834Z,4.50
2019-01-09T19:51:49.283Z,3.23
2019-01-09T19:54:21.302Z,3.50
2019-01-09T19:56:53.209Z,12.30
2019-01-09T19:59:24.787Z,7.23
2019-01-09T20:01:56.619Z,10.53
2019-01-09T20:04:28.070Z,4.60
2019-01-09T20:06:59.639Z,4.10
2019-01-09T20:09:31.129Z,4.17
2019-01-09T20:12:02.631Z,5.50
2019-01-09T20:14:34.047Z,5.00
2019-01-09T20:17:05.839Z,10.23
2019-01-09T20:19:37.521Z,7.03
2019-01-09T20:22:09.123Z,6.00
2019-01-09T20:24:41.547Z,5.03
2019-01-09T20:27:14.164Z,3.30
2019-01-09T20:29:46.662Z,4.17
2019-01-09T20:32:18.010Z,5.07
2019-01-09T20:34:49.533Z,4.53
2019-01-09T20:37:20.990Z,3.70
2019-01-09T20:39:52.357Z,5.40
2019-01-09T20:42:23.773Z,5.23
2019-01-09T20:44:55.124Z,5.70
2019-01-09T20:47:27.535Z,7.37
2019-01-09T20:49:58.847Z,7.03
2019-01-09T20:52:30.494Z,3.10
2019-01-09T20:55:01.950Z,5.17
2019-01-09T20:57:33.594Z,4.13
2019-01-09T21:00:07.350Z,5.43
2019-01-09T21:02:38.747Z,5.37
2019-01-09T21:05:13.201Z,4.93
2019-01-09T21:07:44.498Z,6.23
2019-01-09T21:10:16.557Z,6.40
2019-01-09T21:12:48.144Z,10.63
2019-01-09T21:15:19.786Z,7.23
2019-01-09T21:17:51.197Z,6.27
2019-01-09T21:20:22.624Z,7.80
2019-01-09T21:22:54.006Z,7.40
2019-01-09T21:25:25.629Z,5.50
2019-01-09T21:27:57.080Z,6.80
2019-01-09T21:30:29.609Z,5.10
2019-01-09T21:33:00.921Z,5.23
2019-01-09T21:35:33.427Z,5.50
2019-01-09T21:38:05.053Z,5.97
2019-01-09T21:40:36.470Z,7.43
2019-01-09T21:43:07.842Z,4.97
2019-01-09T21:45:39.445Z,7.13
2019-01-09T21:48:10.965Z,7.23
2019-01-09T21:50:43.763Z,5.97
2019-01-09T21:53:17.152Z,6.83
2019-01-09T21:55:50.600Z,6.10
2019-01-09T21:58:21.957Z,4.43
2019-01-09T22:00:53.716Z,5.07
2019-01-09T22:03:25.117Z,4.10
2019-01-09T22:05:58.483Z,4.47
2019-01-09T22:08:30.037Z,4.10
2019-01-09T22:11:01.665Z,4.63
2019-01-09T22:13:33.268Z,4.10
2019-01-09T22:16:06.111Z,4.77
2019-01-09T22:18:37.438Z,4.93
2019-01-09T22:21:08.917Z,4.40
2019-01-09T22:23:41.277Z,5.80
2019-01-09T22:26:12.649Z,4.47
2019-01-09T22:28:44.075Z,5.50
2019-01-09T22:31:16.726Z,3.80
2019-01-09T22:33:49.718Z,4.83
2019-01-09T22:36:22.571Z,4.27
2019-01-09T22:38:54.691Z,5.43
2019-01-09T22:41:26.634Z,4.10
2019-01-09T22:44:01.303Z,3.70
2019-01-09T22:46:34.625Z,4.30
2019-01-09T22:49:07.551Z,4.47
2019-01-09T22:51:38.965Z,6.60
2019-01-09T22:54:10.321Z,6.10
2019-01-09T22:56:41.642Z,23.13
2019-01-09T22:59:12.970Z,9.27
2019-01-09T23:01:44.409Z,7.07
2019-01-09T23:04:15.708Z,5.53
2019-01-09T23:06:47.375Z,4.33
2019-01-09T23:09:18.762Z,5.70
2019-01-09T23:11:50.109Z,8.30
2019-01-09T23:14:21.531Z,5.60
2019-01-09T23:16:52.791Z,4.93
2019-01-09T23:19:24.263Z,3.33
2019-01-09T23:21:55.662Z,5.50
2019-01-09T23:24:28.021Z,3.93
2019-01-09T23:26:59.338Z,4.83
2019-01-09T23:29:30.893Z,4.03
2019-01-09T23:32:02.407Z,4.30
2019-01-09T23:34:33.747Z,4.63
2019-01-09T23:37:05.389Z,3.53
2019-01-09T23:39:36.861Z,5.50
2019-01-09T23:42:08.197Z,4.50
2019-01-09T23:44:39.551Z,4.27
2019-01-09T23:47:10.839Z,4.80
2019-01-09T23:49:42.172Z,5.50
2019-01-09T23:52:14.978Z,5.30
2019-01-09T23:54:46.807Z,4.93
2019-01-09T23:57:18.142Z,4.93
2019-01-09T23:59:49.466Z,4.73
